createdAt,value
2017-06-22T00:00:57.051Z,54.62
2017-06-22T00:02:07.446Z,54.71
2017-06-22T00:03:17.468Z,54.71
2017-06-22T00:04:27.838Z,54.71
2017-06-22T00:05:38.206Z,54.71
2017-06-22T00:06:48.254Z,54.62
2017-06-22T00:07:58.716Z,54.62
2017-06-22T00:09:08.761Z,54.81
2017-06-22T00:10:19.109Z,54.62
2017-06-22T00:11:29.467Z,54.81
2017-06-22T00:12:39.513Z,54.91
2017-06-22T00:13:49.923Z,54.81
2017-06-22T00:14:59.965Z,54.81
2017-06-22T00:16:10.316Z,54.71
2017-06-22T00:17:20.668Z,54.91
2017-06-22T00:18:31.012Z,54.62
2017-06-22T00:19:41.405Z,54.62
2017-06-22T00:20:51.912Z,54.81
2017-06-22T00:22:02.280Z,54.81
2017-06-22T00:23:12.650Z,54.81
2017-06-22T00:24:22.695Z,54.71
2017-06-22T00:25:33.043Z,54.71
2017-06-22T00:26:43.398Z,54.71
2017-06-22T00:27:53.745Z,54.71
2017-06-22T00:29:03.781Z,54.91
2017-06-22T00:30:14.128Z,54.91
2017-06-22T00:31:23.866Z,54.98
2017-06-22T00:32:34.214Z,54.98
2017-06-22T00:33:43.930Z,54.88
2017-06-22T00:34:53.670Z,55.07
2017-06-22T00:36:03.392Z,54.79
2017-06-22T00:37:13.800Z,54.69
2017-06-22T00:38:24.153Z,55.17
2017-06-22T00:39:34.204Z,54.98
2017-06-22T00:40:43.931Z,55.17
2017-06-22T00:41:53.962Z,55.07
2017-06-22T00:43:04.047Z,55.36
2017-06-22T00:44:14.422Z,55.36
2017-06-22T00:45:24.786Z,55.36
2017-06-22T00:46:34.840Z,55.36
2017-06-22T00:47:44.883Z,55.36
2017-06-22T00:48:55.280Z,55.36
2017-06-22T00:50:05.648Z,55.36
2017-06-22T00:51:16.004Z,55.34
2017-06-22T00:52:25.742Z,55.36
2017-06-22T00:53:36.100Z,55.34
2017-06-22T00:54:46.146Z,55.15
2017-06-22T00:55:56.504Z,55.34
2017-06-22T00:57:06.245Z,55.24
2017-06-22T00:58:16.278Z,55.34
2017-06-22T00:59:26.638Z,55.43
2017-06-22T01:00:36.670Z,55.34
2017-06-22T01:01:47.025Z,54.95
2017-06-22T01:02:57.066Z,55.15
2017-06-22T01:04:07.107Z,54.85
2017-06-22T01:05:17.461Z,54.85
2017-06-22T01:06:27.556Z,54.75
2017-06-22T01:07:37.921Z,55.34
2017-06-22T01:08:48.276Z,55.15
2017-06-22T01:09:58.303Z,54.95
2017-06-22T01:11:08.348Z,55.15
2017-06-22T01:12:18.694Z,55.15
2017-06-22T01:13:29.064Z,54.95
2017-06-22T01:14:39.406Z,54.75
2017-06-22T01:15:49.453Z,54.95
2017-06-22T01:16:59.500Z,54.95
2017-06-22T01:18:10.915Z,55.34
2017-06-22T01:19:21.209Z,55.34
2017-06-22T01:20:31.564Z,55.34
2017-06-22T01:21:41.292Z,55.15
2017-06-22T01:22:51.654Z,55.24
2017-06-22T01:24:01.735Z,55.24
2017-06-22T01:25:12.082Z,55.24
2017-06-22T01:26:22.118Z,55.34
2017-06-22T01:27:32.474Z,55.34
2017-06-22T01:28:42.516Z,55.34
2017-06-22T01:29:52.869Z,55.34
2017-06-22T01:31:02.887Z,55.34
2017-06-22T01:32:13.247Z,55.15
2017-06-22T01:33:23.279Z,55.24
2017-06-22T01:34:33.621Z,55.15
2017-06-22T01:35:43.710Z,55.34
2017-06-22T01:36:54.063Z,55.15
2017-06-22T01:38:04.421Z,55.34
2017-06-22T01:39:14.762Z,55.34
2017-06-22T01:40:24.804Z,55.34
2017-06-22T01:41:35.213Z,55.31
2017-06-22T01:42:45.239Z,55.15
2017-06-22T01:43:55.585Z,55.11
2017-06-22T01:45:05.928Z,55.11
2017-06-22T01:46:16.283Z,55.21
2017-06-22T01:47:26.641Z,55.31
2017-06-22T01:48:36.348Z,55.31
2017-06-22T01:49:46.390Z,55.31
2017-06-22T01:50:56.421Z,55.31
2017-06-22T01:52:06.779Z,55.31
2017-06-22T01:53:17.169Z,55.31
2017-06-22T01:54:27.525Z,55.02
2017-06-22T01:55:37.871Z,55.31
2017-06-22T01:56:48.226Z,55.31
2017-06-22T01:57:58.249Z,55.11
2017-06-22T01:59:08.015Z,54.83
2017-06-22T02:00:18.062Z,55.11
2017-06-22T02:01:28.088Z,55.31
2017-06-22T02:02:38.123Z,55.31
2017-06-22T02:03:48.155Z,55.31
2017-06-22T02:04:58.516Z,55.31
2017-06-22T02:06:08.857Z,55.41
2017-06-22T02:07:19.204Z,55.11
2017-06-22T02:08:29.571Z,55.31
2017-06-22T02:09:39.642Z,55.02
2017-06-22T02:10:50.069Z,55.11
2017-06-22T02:12:00.422Z,54.83
2017-06-22T02:13:10.769Z,55.11
2017-06-22T02:14:21.134Z,55.21
2017-06-22T02:15:31.488Z,55.31
2017-06-22T02:16:41.579Z,55.29
2017-06-22T02:17:51.936Z,54.83
2017-06-22T02:19:02.299Z,55.29
2017-06-22T02:20:12.644Z,55.29
2017-06-22T02:21:22.993Z,55.29
2017-06-22T02:22:33.085Z,55.19
2017-06-22T02:23:43.421Z,55.29
2017-06-22T02:24:53.768Z,55.09
2017-06-22T02:26:04.117Z,55.09
2017-06-22T02:27:14.150Z,55.09
2017-06-22T02:28:24.502Z,55.19
2017-06-22T02:29:34.837Z,55.09
2017-06-22T02:30:44.883Z,55.09
2017-06-22T02:31:55.224Z,55.29
2017-06-22T02:33:05.267Z,55.19
2017-06-22T02:34:15.628Z,55.19
2017-06-22T02:35:25.983Z,55.29
2017-06-22T02:36:35.705Z,55.29
2017-06-22T02:37:45.762Z,55.29
2017-06-22T02:38:55.804Z,55.29
2017-06-22T02:40:06.147Z,55.29
2017-06-22T02:41:16.483Z,55.19
2017-06-22T02:42:26.833Z,55.26
2017-06-22T02:43:37.190Z,54.97
2017-06-22T02:44:47.233Z,55.07
2017-06-22T02:45:57.264Z,55.07
2017-06-22T02:47:06.986Z,55.07
2017-06-22T02:48:17.347Z,55.26
2017-06-22T02:49:27.692Z,55.29
2017-06-22T02:50:38.041Z,55.19
2017-06-22T02:51:48.117Z,54.71
2017-06-22T02:52:58.455Z,54.99
2017-06-22T02:54:08.511Z,55.09
2017-06-22T02:55:18.555Z,55.29
2017-06-22T02:56:28.903Z,55.09
2017-06-22T02:57:39.276Z,55.29
2017-06-22T02:58:49.614Z,54.97
2017-06-22T02:59:59.668Z,55.26
2017-06-22T03:01:10.021Z,54.9
2017-06-22T03:33:22.430Z,51.75
2017-06-22T03:34:32.140Z,52.61
2017-06-22T03:35:42.163Z,52.81
2017-06-22T03:36:52.190Z,53.29
2017-06-22T03:38:02.542Z,53.77
2017-06-22T03:39:12.917Z,54.06
2017-06-22T03:40:22.946Z,54.06
2017-06-22T03:41:33.023Z,54.47
2017-06-22T03:42:43.355Z,54.47
2017-06-22T03:43:53.380Z,54.5
2017-06-22T03:45:03.413Z,54.31
2017-06-22T03:46:13.759Z,54.62
2017-06-22T03:47:24.103Z,54.24
2017-06-22T03:48:34.132Z,54.55
2017-06-22T03:49:44.491Z,54.58
2017-06-22T03:50:54.294Z,54.29
2017-06-22T03:52:04.649Z,53.91
2017-06-22T03:53:14.672Z,53.93
2017-06-22T03:54:25.022Z,54.05
2017-06-22T03:55:34.762Z,54.05
2017-06-22T03:56:45.151Z,54.05
2017-06-22T03:57:55.183Z,54.08
2017-06-22T03:59:05.520Z,53.99
2017-06-22T04:00:15.237Z,53.89
2017-06-22T04:01:24.963Z,54.11
2017-06-22T04:02:35.038Z,54.11
2017-06-22T04:03:45.395Z,54.11
2017-06-22T04:04:55.129Z,54.21
2017-06-22T04:06:05.473Z,54.21
2017-06-22T04:07:15.839Z,54.13
2017-06-22T04:08:26.224Z,54.13
2017-06-22T04:09:36.574Z,54.23
2017-06-22T04:10:46.923Z,54.23
2017-06-22T04:11:57.286Z,54.13
2017-06-22T04:13:07.630Z,54.23
2017-06-22T04:14:18.022Z,53.94
2017-06-22T04:15:28.060Z,53.94
2017-06-22T04:16:38.107Z,53.97
2017-06-22T04:17:48.442Z,53.77
2017-06-22T04:18:58.799Z,53.29
2017-06-22T04:20:08.892Z,52.28
2017-06-22T04:21:19.243Z,50.7
2017-06-22T04:22:29.626Z,49.83
2017-06-22T04:23:39.981Z,49.1
2017-06-22T04:24:50.026Z,48.85
2017-06-22T04:26:00.125Z,49
2017-06-22T04:27:10.485Z,48.83
2017-06-22T04:28:20.839Z,48.46
2017-06-22T04:29:31.195Z,48.8
2017-06-22T04:30:41.547Z,49.11
2017-06-22T04:31:51.935Z,49.21
2017-06-22T04:33:02.285Z,48.97
2017-06-22T04:34:12.328Z,48.99
2017-06-22T04:35:22.684Z,49.11
2017-06-22T04:36:33.041Z,48.94
2017-06-22T04:37:43.141Z,49.36
2017-06-22T04:38:53.178Z,49.26
2017-06-22T04:40:03.521Z,49.48
2017-06-22T04:41:13.577Z,49.51
2017-06-22T04:42:23.935Z,49.33
2017-06-22T04:43:34.356Z,49.33
2017-06-22T04:44:44.703Z,49.46
2017-06-22T04:45:54.109Z,49.18
2017-06-22T04:47:04.490Z,49.28
2017-06-22T04:48:14.543Z,48.91
2017-06-22T04:49:24.985Z,48.94
2017-06-22T04:50:35.331Z,49.06
2017-06-22T04:51:45.683Z,49.18
2017-06-22T04:52:56.036Z,49.26
2017-06-22T04:54:06.087Z,48.59
2017-06-22T04:55:15.818Z,49.01
2017-06-22T04:56:25.875Z,49.2
2017-06-22T04:57:36.248Z,49.1
2017-06-22T04:58:46.590Z,49.3
2017-06-22T04:59:56.944Z,48.91
2017-06-22T05:01:06.718Z,49.22
2017-06-22T05:02:16.765Z,49.6
2017-06-22T05:03:27.138Z,49.3
2017-06-22T05:04:37.500Z,49.79
2017-06-22T05:05:47.860Z,49.69
2017-06-22T05:06:58.232Z,49.79
2017-06-22T05:08:08.606Z,49.99
2017-06-22T05:09:18.958Z,49.69
2017-06-22T05:10:28.996Z,49.79
2017-06-22T05:11:39.082Z,49.5
2017-06-22T05:12:49.175Z,49.4
2017-06-22T05:13:59.215Z,49.6
2017-06-22T05:15:09.572Z,49.5
2017-06-22T05:16:19.305Z,49.33
2017-06-22T05:17:29.363Z,49.52
2017-06-22T05:18:39.707Z,49.43
2017-06-22T05:19:49.760Z,49.6
2017-06-22T05:21:00.127Z,49.72
2017-06-22T05:22:10.490Z,49.52
2017-06-22T05:23:20.846Z,49.82
2017-06-22T05:24:31.254Z,49.79
2017-06-22T05:25:41.610Z,49.72
2017-06-22T05:26:51.972Z,50.09
2017-06-22T05:28:01.687Z,50.19
2017-06-22T05:29:12.031Z,50.46
2017-06-22T05:30:22.437Z,50.36
2017-06-22T05:31:32.787Z,50.46
2017-06-22T05:32:42.200Z,50.66
2017-06-22T05:33:52.582Z,50.54
2017-06-22T05:35:02.937Z,50.44
2017-06-22T05:36:13.362Z,50.26
2017-06-22T05:37:23.735Z,50.46
2017-06-22T05:38:34.105Z,50.66
2017-06-22T05:39:44.471Z,50.56
2017-06-22T05:40:54.525Z,50.26
2017-06-22T05:42:04.945Z,49.77
2017-06-22T05:43:15.001Z,49.79
2017-06-22T05:44:25.357Z,49.6
2017-06-22T05:45:35.715Z,49.3
2017-06-22T05:46:46.072Z,49.69
2017-06-22T05:47:56.479Z,49.79
2017-06-22T05:49:06.835Z,49.69
2017-06-22T05:50:16.882Z,49.4
2017-06-22T05:51:26.920Z,49.5
2017-06-22T05:52:37.265Z,49.5
2017-06-22T05:53:47.001Z,49.43
2017-06-22T05:54:57.045Z,49.5
2017-06-22T05:56:07.389Z,49.4
2017-06-22T05:57:17.112Z,49.43
2017-06-22T05:58:27.459Z,49.5
2017-06-22T05:59:37.550Z,49.69
2017-06-22T06:00:47.913Z,49.79
2017-06-22T06:01:57.952Z,49.5
2017-06-22T06:03:08.301Z,50.29
2017-06-22T06:04:18.664Z,50.46
2017-06-22T06:05:29.011Z,50.36
2017-06-22T06:06:39.056Z,50.36
2017-06-22T06:07:49.400Z,50.26
2017-06-22T06:08:59.754Z,50.16
2017-06-22T06:10:09.168Z,50.34
2017-06-22T06:11:19.578Z,50.66
2017-06-22T06:12:29.312Z,50.63
2017-06-22T06:13:39.378Z,50.83
2017-06-22T06:14:49.737Z,50.83
2017-06-22T06:15:59.451Z,50.83
2017-06-22T06:17:09.799Z,50.73
2017-06-22T06:18:20.145Z,50.83
2017-06-22T06:19:30.172Z,50.83
2017-06-22T06:20:39.887Z,50.54
2017-06-22T06:21:49.613Z,50.34
2017-06-22T06:23:00.012Z,50.34
2017-06-22T06:24:10.358Z,50.83
2017-06-22T06:25:20.095Z,50.93
2017-06-22T06:26:30.441Z,50.93
2017-06-22T06:27:40.813Z,50.9
2017-06-22T06:28:51.163Z,51
2017-06-22T06:30:01.532Z,51.18
2017-06-22T06:31:11.898Z,51.28
2017-06-22T06:32:22.252Z,51.28
2017-06-22T06:33:32.308Z,51.25
2017-06-22T06:34:42.704Z,51.54
2017-06-22T06:35:52.750Z,51.25
2017-06-22T06:37:03.102Z,51.25
2017-06-22T06:38:13.464Z,51.42
2017-06-22T06:39:23.821Z,51.74
2017-06-22T06:40:33.922Z,51.03
2017-06-22T06:41:44.284Z,51.32
2017-06-22T06:42:54.003Z,51.42
2017-06-22T06:44:04.362Z,51.32
2017-06-22T06:45:14.707Z,51.42
2017-06-22T06:46:24.813Z,51.52
2017-06-22T06:47:35.164Z,51.62
2017-06-22T06:48:45.526Z,51.22
2017-06-22T06:49:55.881Z,51.22
2017-06-22T06:51:06.241Z,51.22
2017-06-22T06:52:16.647Z,50.83
2017-06-22T06:53:27.000Z,50.54
2017-06-22T06:54:37.053Z,51.05
2017-06-22T06:55:47.430Z,50.16
2017-06-22T06:56:57.788Z,50.49
2017-06-22T06:58:07.249Z,50.59
2017-06-22T06:59:17.604Z,50.78
2017-06-22T07:00:27.962Z,50.95
2017-06-22T07:01:37.701Z,51.62
2017-06-22T07:02:47.750Z,51.79
2017-06-22T07:03:58.158Z,51.69
2017-06-22T07:05:07.886Z,51.69
2017-06-22T07:06:17.939Z,51.59
2017-06-22T07:07:28.293Z,51.89
2017-06-22T07:08:38.636Z,51.89
2017-06-22T07:09:48.985Z,51.79
2017-06-22T07:10:59.337Z,51.89
2017-06-22T07:12:09.700Z,51.59
2017-06-22T07:13:20.065Z,51.59
2017-06-22T07:14:30.115Z,51.47
2017-06-22T07:15:40.158Z,51.57
2017-06-22T07:16:50.498Z,51.59
2017-06-22T07:18:00.839Z,51.69
2017-06-22T07:19:10.877Z,51.4
2017-06-22T07:20:21.288Z,51.1
2017-06-22T07:21:31.631Z,51.59
2017-06-22T07:22:41.676Z,51.76
2017-06-22T07:23:52.033Z,51.47
2017-06-22T07:25:02.384Z,51.79
2017-06-22T07:26:13.047Z,51.3
2017-06-22T07:27:23.496Z,51.4
2017-06-22T07:28:33.665Z,51.2
2017-06-22T07:29:44.031Z,51.2
2017-06-22T07:30:54.084Z,51.57
2017-06-22T07:32:04.176Z,51.59
2017-06-22T07:33:14.542Z,51
2017-06-22T07:34:24.920Z,51.22
2017-06-22T07:35:34.941Z,51.32
2017-06-22T07:36:44.987Z,51.59
2017-06-22T07:37:54.720Z,51.89
2017-06-22T07:39:05.077Z,51.86
2017-06-22T07:40:15.438Z,51.96
2017-06-22T07:41:25.781Z,52.45
2017-06-22T07:42:35.840Z,52.65
2017-06-22T07:43:45.565Z,52.33
2017-06-22T07:44:55.914Z,52.42
2017-06-22T07:46:05.959Z,51.74
2017-06-22T07:47:16.324Z,51.17
2017-06-22T07:48:26.371Z,51.37
2017-06-22T07:49:36.458Z,51.4
2017-06-22T07:50:46.844Z,51.69
2017-06-22T07:51:56.878Z,51.2
2017-06-22T07:53:07.233Z,51.79
2017-06-22T07:54:17.276Z,51.57
2017-06-22T07:55:27.628Z,51.37
2017-06-22T07:56:37.978Z,51.76
2017-06-22T07:57:48.091Z,51.76
2017-06-22T07:58:58.634Z,51.57
2017-06-22T08:00:08.832Z,51.5
2017-06-22T08:01:19.646Z,51.69
2017-06-22T08:02:30.006Z,51.5
2017-06-22T08:03:40.384Z,51.79
2017-06-22T08:04:50.758Z,51.69
2017-06-22T08:06:00.532Z,51.79
2017-06-22T08:07:10.947Z,51.59
2017-06-22T08:08:21.317Z,51.79
2017-06-22T08:09:31.700Z,51.4
2017-06-22T08:10:42.081Z,51.89
2017-06-22T08:11:52.131Z,51.4
2017-06-22T08:13:02.549Z,51.81
2017-06-22T08:14:12.876Z,51.89
2017-06-22T08:15:23.263Z,51.59
2017-06-22T08:16:33.619Z,51.52
2017-06-22T08:17:43.988Z,51.72
2017-06-22T08:18:54.387Z,51.12
2017-06-22T08:20:04.468Z,51.22
2017-06-22T08:21:14.846Z,51.22
2017-06-22T08:22:25.246Z,51.72
2017-06-22T08:23:35.643Z,51.62
2017-06-22T08:24:45.755Z,51.62
2017-06-22T08:25:56.133Z,51.52
2017-06-22T08:27:06.496Z,51.42
2017-06-22T08:28:16.872Z,51.72
2017-06-22T08:29:26.937Z,51.32
2017-06-22T08:30:37.365Z,51.25
2017-06-22T08:31:47.405Z,51.64
2017-06-22T08:32:57.783Z,51.25
2017-06-22T08:34:07.843Z,51.25
2017-06-22T08:35:18.217Z,51.25
2017-06-22T08:36:28.639Z,51.28
2017-06-22T08:37:39.023Z,51.35
2017-06-22T08:38:49.387Z,51.37
2017-06-22T08:39:59.450Z,51.86
2017-06-22T08:41:09.824Z,51.57
2017-06-22T08:42:20.239Z,51.37
2017-06-22T08:43:30.620Z,51.28
2017-06-22T08:44:40.357Z,51.76
2017-06-22T08:45:50.109Z,51.67
2017-06-22T08:47:00.513Z,51.57
2017-06-22T08:48:10.602Z,51.57
2017-06-22T08:49:20.638Z,51.74
2017-06-22T08:50:30.680Z,51.76
2017-06-22T08:51:41.045Z,51.67
2017-06-22T08:52:51.096Z,51.57
2017-06-22T08:54:01.497Z,51.76
2017-06-22T08:55:11.560Z,51.28
2017-06-22T08:56:21.323Z,51.3
2017-06-22T08:57:31.080Z,51.5
2017-06-22T08:58:41.437Z,51.59
2017-06-22T08:59:51.841Z,51.42
2017-06-22T09:01:02.240Z,51.52
2017-06-22T09:02:12.612Z,51.52
2017-06-22T09:03:22.667Z,51.52
2017-06-22T09:04:33.047Z,51.52
2017-06-22T09:05:43.151Z,51.52
2017-06-22T09:06:53.522Z,51.81
2017-06-22T09:08:03.906Z,51.81
2017-06-22T09:09:13.648Z,51.03
2017-06-22T09:10:24.011Z,51.74
2017-06-22T09:11:34.431Z,51.74
2017-06-22T09:12:44.480Z,51.64
2017-06-22T09:13:54.254Z,51.35
2017-06-22T09:15:04.621Z,50.98
2017-06-22T09:16:14.993Z,51.37
2017-06-22T09:17:25.042Z,51.07
2017-06-22T09:18:35.438Z,51.2
2017-06-22T09:19:45.799Z,51
2017-06-22T09:20:56.154Z,51.3
2017-06-22T09:22:06.528Z,51.4
2017-06-22T09:23:16.884Z,51.59
2017-06-22T09:24:27.257Z,51.89
2017-06-22T09:25:37.306Z,51.4
2017-06-22T09:26:47.049Z,51.37
2017-06-22T09:27:57.420Z,51.97
2017-06-22T09:29:07.842Z,51.77
2017-06-22T09:30:18.217Z,51.97
2017-06-22T09:31:27.944Z,52.04
2017-06-22T09:32:38.328Z,52.23
2017-06-22T09:33:48.691Z,52.53
2017-06-22T09:34:59.103Z,52.11
2017-06-22T09:36:09.157Z,51.81
2017-06-22T09:37:19.538Z,51.64
2017-06-22T09:38:29.906Z,51.74
2017-06-22T09:39:39.644Z,51.64
2017-06-22T09:40:50.041Z,51.94
2017-06-22T09:42:00.416Z,51.94
2017-06-22T09:43:10.460Z,51.84
2017-06-22T09:44:20.535Z,51.54
2017-06-22T09:45:30.899Z,51.54
2017-06-22T09:46:40.990Z,51.84
2017-06-22T09:47:51.357Z,52.04
2017-06-22T09:49:01.732Z,51.67
2017-06-22T09:50:11.769Z,51.77
2017-06-22T09:51:22.133Z,51.28
2017-06-22T09:52:32.533Z,51.79
2017-06-22T09:53:42.265Z,51.28
2017-06-22T09:54:52.307Z,51.79
2017-06-22T09:56:02.030Z,51.5
2017-06-22T09:57:12.385Z,51.89
2017-06-22T09:58:22.970Z,51.52
2017-06-22T09:59:33.445Z,51.52
2017-06-22T10:00:43.490Z,51.72
2017-06-22T10:01:53.222Z,51.4
2017-06-22T10:03:03.591Z,51.52
2017-06-22T10:04:13.696Z,51.32
2017-06-22T10:05:24.044Z,51.52
2017-06-22T10:06:34.405Z,51.92
2017-06-22T10:07:44.467Z,51.72
2017-06-22T10:08:54.840Z,52.01
2017-06-22T10:10:04.945Z,51.99
2017-06-22T10:11:15.309Z,51.79
2017-06-22T10:12:25.384Z,51.62
2017-06-22T10:13:35.744Z,51.92
2017-06-22T10:14:46.093Z,51.72
2017-06-22T10:15:55.563Z,51.92
2017-06-22T10:17:05.922Z,51.72
2017-06-22T10:18:16.283Z,51.92
2017-06-22T10:19:26.332Z,51.92
2017-06-22T10:20:36.705Z,51.92
2017-06-22T10:21:47.126Z,51.92
2017-06-22T10:22:57.490Z,51.92
2017-06-22T10:24:07.852Z,51.92
2017-06-22T10:25:17.902Z,51.82
2017-06-22T10:26:28.277Z,51.82
2017-06-22T10:27:38.693Z,51.72
2017-06-22T10:28:49.088Z,51.72
2017-06-22T10:29:59.436Z,51.92
2017-06-22T10:31:09.799Z,52.01
2017-06-22T10:32:20.173Z,52.04
2017-06-22T10:33:30.578Z,51.84
2017-06-22T10:34:40.953Z,51.92
2017-06-22T10:35:51.316Z,52.11
2017-06-22T10:37:01.375Z,51.84
2017-06-22T10:38:11.745Z,52.04
2017-06-22T10:39:21.839Z,51.84
2017-06-22T10:40:32.201Z,51.84
2017-06-22T10:41:42.581Z,51.94
2017-06-22T10:42:52.639Z,51.84
2017-06-22T10:44:02.680Z,51.57
2017-06-22T10:45:12.773Z,51.87
2017-06-22T10:46:22.498Z,51.57
2017-06-22T10:47:32.857Z,51.57
2017-06-22T10:48:42.918Z,51.47
2017-06-22T10:49:52.653Z,52.06
2017-06-22T10:51:03.003Z,51.87
2017-06-22T10:52:12.738Z,51.97
2017-06-22T10:53:23.156Z,52.06
2017-06-22T10:54:33.522Z,52.17
2017-06-22T10:55:43.884Z,51.97
2017-06-22T10:56:53.624Z,51.87
2017-06-22T10:58:03.663Z,51.77
2017-06-22T10:59:13.745Z,51.77
2017-06-22T11:00:23.485Z,51.87
2017-06-22T11:01:33.536Z,52.17
2017-06-22T11:02:43.586Z,51.87
2017-06-22T11:03:53.631Z,51.77
2017-06-22T11:05:03.734Z,51.87
2017-06-22T11:06:14.096Z,51.87
2017-06-22T11:07:24.453Z,52.17
2017-06-22T11:08:34.815Z,52.06
2017-06-22T11:09:45.203Z,51.77
2017-06-22T11:10:55.251Z,51.87
2017-06-22T11:12:05.614Z,52.09
2017-06-22T11:13:15.681Z,51.89
2017-06-22T11:14:25.719Z,52.19
2017-06-22T11:15:36.099Z,52.09
2017-06-22T11:16:46.519Z,52.09
2017-06-22T11:17:56.878Z,51.99
2017-06-22T11:19:06.916Z,51.79
2017-06-22T11:20:16.959Z,51.79
2017-06-22T11:21:27.349Z,52.09
2017-06-22T11:22:37.714Z,51.89
2017-06-22T11:23:47.476Z,52.09
2017-06-22T11:24:57.856Z,52.09
2017-06-22T11:26:07.896Z,51.79
2017-06-22T11:27:18.256Z,51.82
2017-06-22T11:28:28.632Z,52.12
2017-06-22T11:29:38.996Z,52.01
2017-06-22T11:30:48.734Z,51.82
2017-06-22T11:31:59.094Z,51.92
2017-06-22T11:33:09.450Z,51.82
2017-06-22T11:34:19.572Z,51.92
2017-06-22T11:35:29.648Z,51.92
2017-06-22T11:36:39.388Z,51.82
2017-06-22T11:37:49.759Z,52.01
2017-06-22T11:38:59.804Z,51.72
2017-06-22T11:40:09.951Z,52.12
2017-06-22T11:41:20.064Z,52.12
2017-06-22T11:42:30.151Z,52.29
2017-06-22T11:43:40.055Z,51.89
2017-06-22T11:44:50.446Z,52.12
2017-06-22T11:46:00.516Z,52.12
2017-06-22T11:47:10.862Z,52.12
2017-06-22T11:48:21.213Z,52.12
2017-06-22T11:49:31.574Z,52.19
2017-06-22T11:50:42.176Z,52.22
2017-06-22T11:51:52.300Z,51.92
2017-06-22T11:53:02.678Z,51.82
2017-06-22T11:54:13.047Z,52.12
2017-06-22T11:55:23.406Z,52.12
2017-06-22T11:56:33.762Z,52.12
2017-06-22T11:57:43.868Z,51.92
2017-06-22T11:58:53.919Z,51.84
2017-06-22T12:00:03.996Z,52.04
2017-06-22T12:01:14.072Z,51.84
2017-06-22T12:02:24.429Z,52.17
2017-06-22T12:03:34.857Z,51.84
2017-06-22T12:04:45.224Z,51.77
2017-06-22T12:05:55.603Z,51.94
2017-06-22T12:07:05.655Z,52.14
2017-06-22T12:08:16.059Z,51.94
2017-06-22T12:09:26.473Z,51.84
2017-06-22T12:10:36.830Z,51.87
2017-06-22T12:11:47.204Z,51.87
2017-06-22T12:12:57.584Z,51.87
2017-06-22T12:14:07.649Z,51.97
2017-06-22T12:15:18.075Z,52.07
2017-06-22T12:16:27.827Z,51.89
2017-06-22T12:17:37.884Z,51.87
2017-06-22T12:18:47.927Z,51.97
2017-06-22T12:19:57.993Z,51.87
2017-06-22T12:21:08.113Z,51.87
2017-06-22T12:22:18.801Z,51.87
2017-06-22T12:23:28.857Z,51.87
2017-06-22T12:24:38.912Z,51.97
2017-06-22T12:25:49.301Z,51.97
2017-06-22T12:26:59.723Z,51.97
2017-06-22T12:28:10.091Z,51.97
2017-06-22T12:29:20.141Z,52.26
2017-06-22T12:30:30.520Z,51.77
2017-06-22T12:31:40.300Z,51.77
2017-06-22T12:32:50.112Z,52.26
2017-06-22T12:34:00.503Z,52.17
2017-06-22T12:35:10.562Z,52.07
2017-06-22T12:36:20.933Z,52.26
2017-06-22T12:37:31.307Z,51.89
2017-06-22T12:38:41.399Z,51.67
2017-06-22T12:39:51.776Z,51.87
2017-06-22T12:41:01.516Z,52.09
2017-06-22T12:42:11.638Z,52.19
2017-06-22T12:43:21.703Z,52.19
2017-06-22T12:44:32.133Z,51.77
2017-06-22T12:45:42.513Z,52.17
2017-06-22T12:46:52.891Z,52.17
2017-06-22T12:48:03.290Z,52.26
2017-06-22T12:49:13.339Z,51.87
2017-06-22T12:50:23.397Z,51.99
2017-06-22T12:51:33.772Z,51.89
2017-06-22T12:52:44.130Z,52.09
2017-06-22T12:53:54.204Z,52.09
2017-06-22T12:55:04.263Z,52.09
2017-06-22T12:56:14.662Z,52.12
2017-06-22T12:57:25.054Z,52.09
2017-06-22T12:58:35.433Z,51.62
2017-06-22T12:59:45.797Z,51.92
2017-06-22T13:00:55.878Z,52.12
2017-06-22T13:02:06.333Z,51.62
2017-06-22T13:03:16.412Z,51.62
2017-06-22T13:04:26.805Z,51.92
2017-06-22T13:05:37.185Z,52.12
2017-06-22T13:06:47.564Z,51.65
2017-06-22T13:07:58.002Z,51.62
2017-06-22T13:09:08.381Z,51.65
2017-06-22T13:10:18.825Z,52.04
2017-06-22T13:11:29.209Z,52.04
2017-06-22T13:12:39.572Z,51.94
2017-06-22T13:13:49.694Z,52.04
2017-06-22T13:14:59.761Z,52.04
2017-06-22T13:16:09.840Z,52.14
2017-06-22T13:17:19.578Z,51.67
2017-06-22T13:18:29.632Z,51.54
2017-06-22T13:19:40.081Z,52.24
2017-06-22T13:20:50.472Z,52.24
2017-06-22T13:22:00.861Z,52.14
2017-06-22T13:23:11.241Z,51.65
2017-06-22T13:24:21.300Z,51.94
2017-06-22T13:25:31.408Z,51.94
2017-06-22T13:26:41.791Z,51.94
2017-06-22T13:27:52.160Z,52.04
2017-06-22T13:29:02.528Z,51.94
2017-06-22T13:30:12.910Z,52.04
2017-06-22T13:31:23.034Z,52.24
2017-06-22T13:32:33.121Z,52.14
2017-06-22T13:33:43.506Z,52.24
2017-06-22T13:34:53.873Z,52.51
2017-06-22T13:36:04.247Z,52.12
2017-06-22T13:37:14.690Z,52.31
2017-06-22T13:38:25.091Z,51.92
2017-06-22T13:39:35.174Z,52.04
2017-06-22T13:40:45.552Z,52.14
2017-06-22T13:41:55.630Z,52.24
2017-06-22T13:43:06.043Z,52.04
2017-06-22T13:44:16.417Z,51.94
2017-06-22T13:45:26.785Z,52.14
2017-06-22T13:46:37.153Z,52.34
2017-06-22T13:47:47.514Z,52.04
2017-06-22T13:48:57.629Z,52.14
2017-06-22T13:50:07.677Z,51.75
2017-06-22T13:51:17.747Z,51.75
2017-06-22T13:52:28.096Z,52.54
2017-06-22T13:53:38.465Z,52.91
2017-06-22T13:54:48.583Z,52.41
2017-06-22T13:55:58.631Z,52.54
2017-06-22T13:57:08.679Z,52.44
2017-06-22T13:58:19.055Z,52.84
2017-06-22T13:59:29.444Z,53.5
2017-06-22T14:00:39.851Z,52.88
2017-06-22T14:01:50.213Z,52.91
2017-06-22T14:03:00.591Z,52.31
2017-06-22T14:04:11.162Z,52.04
2017-06-22T14:05:21.544Z,52.24
2017-06-22T14:06:31.659Z,51.94
2017-06-22T14:07:41.408Z,52.24
2017-06-22T14:08:51.777Z,51.67
2017-06-22T14:10:02.165Z,52.26
2017-06-22T14:11:12.220Z,52.26
2017-06-22T14:12:22.347Z,52.26
2017-06-22T14:13:32.423Z,52.17
2017-06-22T14:14:42.796Z,51.87
2017-06-22T14:15:52.842Z,52.26
2017-06-22T14:17:03.220Z,51.97
2017-06-22T14:18:13.337Z,52.24
2017-06-22T14:19:23.714Z,52.14
2017-06-22T14:20:33.774Z,52.26
2017-06-22T14:21:44.149Z,51.87
2017-06-22T14:22:54.198Z,52.26
2017-06-22T14:24:04.631Z,52.37
2017-06-22T14:25:14.982Z,52.26
2017-06-22T14:26:25.354Z,52.07
2017-06-22T14:27:35.102Z,52.47
2017-06-22T14:28:45.151Z,52.26
2017-06-22T14:29:54.964Z,52.26
2017-06-22T14:31:05.355Z,52.07
2017-06-22T14:32:15.736Z,52.26
2017-06-22T14:33:25.780Z,51.87
2017-06-22T14:34:36.193Z,52.26
2017-06-22T14:35:46.617Z,52.07
2017-06-22T14:36:56.997Z,52.37
2017-06-22T14:38:07.370Z,52.54
2017-06-22T14:39:17.737Z,52.24
2017-06-22T14:40:27.480Z,52.14
2017-06-22T14:41:37.908Z,52.54
2017-06-22T14:42:48.302Z,52.47
2017-06-22T14:43:58.708Z,52.54
2017-06-22T14:45:09.070Z,52.54
2017-06-22T14:46:19.443Z,52.24
2017-06-22T14:47:29.562Z,52.14
2017-06-22T14:48:39.624Z,52.14
2017-06-22T14:49:49.693Z,52.34
2017-06-22T14:51:00.075Z,52.47
2017-06-22T14:52:09.834Z,52.07
2017-06-22T14:53:19.898Z,52.76
2017-06-22T14:54:29.963Z,52.84
2017-06-22T14:55:40.041Z,52.81
2017-06-22T14:56:50.088Z,53.08
2017-06-22T14:58:00.163Z,52.61
2017-06-22T14:59:10.579Z,52.71
2017-06-22T15:00:20.627Z,52.71
2017-06-22T15:01:30.691Z,52.71
2017-06-22T15:02:41.079Z,53.01
2017-06-22T15:03:50.872Z,53.08
2017-06-22T15:05:01.305Z,53.08
2017-06-22T15:06:11.687Z,52.98
2017-06-22T15:07:21.778Z,52.96
2017-06-22T15:08:32.152Z,53.16
2017-06-22T15:09:42.523Z,53.35
2017-06-22T15:10:52.633Z,53.33
2017-06-22T15:12:03.011Z,52.91
2017-06-22T15:13:13.071Z,52.66
2017-06-22T15:14:23.452Z,52.66
2017-06-22T15:15:33.807Z,52.98
2017-06-22T15:16:44.219Z,52.78
2017-06-22T15:17:54.593Z,52.78
2017-06-22T15:19:04.983Z,52.69
2017-06-22T15:20:15.371Z,52.49
2017-06-22T15:21:25.765Z,51.72
2017-06-22T15:22:35.898Z,52.14
2017-06-22T15:23:46.257Z,51.75
2017-06-22T15:24:56.660Z,51.87
2017-06-22T15:26:06.733Z,51.67
2017-06-22T15:27:17.102Z,51.7
2017-06-22T15:28:27.544Z,51.6
2017-06-22T15:29:37.609Z,51.72
2017-06-22T15:30:47.981Z,51.92
2017-06-22T15:31:58.366Z,51.62
2017-06-22T15:33:08.747Z,51.89
2017-06-22T15:34:18.793Z,52.59
2017-06-22T15:35:29.167Z,52.86
2017-06-22T15:36:39.537Z,53.43
2017-06-22T15:37:49.639Z,53.31